Terminal Aerodrome Forecast
Issued by NWS Los Angeles, CA

Home | Current Version | Previous Version | Text Only | Print | Product List | Glossary On
Versions: 1 2 3 4 5 6 7 8 9 10 11 12 13 14 15 16 17 18 19 20 21 22 23 24
000
FTUS46 KLOX 221700
TAFSMX
TAF
KSMX 221737Z 2218/2318 VRB03KT 6SM BR SCT010
     FM222000 30012KT P6SM SKC
     FM230200 29007KT P6SM SKC
     FM230400 VRB03KT P6SM BKN006
     FM230800 VRB03KT 3SM BR OVC004
     FM231730 VRB03KT P6SM SCT010=

USA.gov is the U.S. government's official web portal to all federal, state and local government web resources and services.